Time;durP1;ratioP1;P1;durP2;ratioP2;P2;SDS_P1;SDS_P2;PMS_P1;PMS_P2;Temp;Humidity;BMP_temperature;BMP_pressure;BME280_temperature;BME280_humidity;BME280_pressure;Samples;Min_cycle;Max_cycle;Signal;HPM_P1;HPM_P2
2022/09/05 00:01:07;;;;;;;6.43;3.13;;;20.10;93.50;;;;;;5034986;28;20052;-70
2022/09/05 00:03:53;;;;;;;5.30;3.40;;;20.10;93.50;;;;;;5034305;28;20057;-70
2022/09/05 00:06:21;;;;;;;6.63;3.17;;;20.10;93.60;;;;;;5018835;28;20049;-70
2022/09/05 00:09:28;;;;;;;6.45;2.80;;;20.00;93.50;;;;;;5052025;28;20033;-69
2022/09/05 00:11:59;;;;;;;4.63;3.03;;;20.00;93.40;;;;;;4964964;28;20393;-70
2022/09/05 00:14:51;;;;;;;5.55;3.17;;;20.00;93.30;;;;;;5034658;28;20063;-72
2022/09/05 00:17:24;;;;;;;5.40;3.13;;;20.00;93.50;;;;;;5034994;28;20068;-69
2022/09/05 00:20:07;;;;;;;4.80;3.50;;;20.00;93.50;;;;;;5034438;28;20052;-69
2022/09/05 00:22:40;;;;;;;6.40;3.42;;;19.90;93.50;;;;;;5017622;28;20045;-69
2022/09/05 00:25:45;;;;;;;6.53;3.70;;;19.90;93.60;;;;;;5052442;28;20052;-69
2022/09/05 00:28:37;;;;;;;6.10;3.50;;;19.90;93.60;;;;;;5034540;28;20099;-69
2022/09/05 00:31:14;;;;;;;5.75;3.40;;;19.80;93.80;;;;;;5017846;28;20048;-69
2022/09/05 00:34:11;;;;;;;8.52;3.83;;;19.80;93.70;;;;;;5034200;28;20441;-69
2022/09/05 00:36:41;;;;;;;7.32;3.47;;;19.70;93.90;;;;;;5017760;28;20084;-69
2022/09/05 00:39:16;;;;;;;8.10;4.22;;;19.70;93.90;;;;;;5034579;28;20053;-70
2022/09/05 00:41:43;;;;;;;5.80;3.78;;;19.60;93.90;;;;;;5033719;28;20387;-69
2022/09/05 00:44:12;;;;;;;6.97;4.28;;;19.60;94.00;;;;;;5017932;28;20513;-70
2022/09/05 00:46:46;;;;;;;8.75;4.28;;;19.60;94.10;;;;;;5033988;28;20067;-71
2022/09/05 00:49:37;;;;;;;5.82;4.50;;;19.60;94.10;;;;;;5034342;28;20051;-70
2022/09/05 00:52:27;;;;;;;6.55;3.90;;;19.50;94.30;;;;;;5034362;28;20549;-69
2022/09/05 00:55:17;;;;;;;6.60;3.75;;;19.50;94.40;;;;;;5033936;28;20107;-69
2022/09/05 00:58:12;;;;;;;5.57;4.10;;;19.50;94.20;;;;;;5034004;28;20048;-70
2022/09/05 01:00:54;;;;;;;8.30;4.32;;;19.50;94.30;;;;;;5051803;28;20104;-70
2022/09/05 01:03:36;;;;;;;5.95;3.95;;;19.40;94.60;;;;;;5033763;28;20095;-70
2022/09/05 01:06:20;;;;;;;7.10;4.40;;;19.40;94.50;;;;;;5033951;28;20049;-69
2022/09/05 01:09:00;;;;;;;5.82;3.92;;;19.30;94.40;;;;;;5017310;28;20045;-70
2022/09/05 01:11:56;;;;;;;7.50;4.15;;;19.30;94.60;;;;;;5017480;28;20080;-69
2022/09/05 01:14:40;;;;;;;6.47;4.25;;;19.30;94.60;;;;;;5034151;28;20103;-70
2022/09/05 01:17:26;;;;;;;5.93;4.20;;;19.30;94.50;;;;;;5017714;28;20045;-70
2022/09/05 01:20:07;;;;;;;6.47;3.90;;;19.20;94.60;;;;;;4993428;28;20111;-70
2022/09/05 01:23:06;;;;;;;7.78;4.03;;;19.20;94.60;;;;;;5033751;28;20064;-70
2022/09/05 01:25:57;;;;;;;7.65;4.30;;;19.20;94.80;;;;;;5034027;28;20037;-69
2022/09/05 01:28:44;;;;;;;10.48;3.95;;;19.20;94.90;;;;;;5017269;28;20059;-70
2022/09/05 01:31:41;;;;;;;6.13;3.70;;;19.10;95.00;;;;;;5017536;28;20063;-69
2022/09/05 01:34:33;;;;;;;5.53;4.10;;;19.10;95.00;;;;;;5033238;28;20095;-69
2022/09/05 01:37:17;;;;;;;5.78;3.60;;;19.10;95.20;;;;;;5033371;28;20057;-68
2022/09/05 01:40:13;;;;;;;7.90;4.47;;;19.10;95.00;;;;;;5051300;28;20037;-69
2022/09/05 01:43:04;;;;;;;6.43;4.07;;;19.00;95.30;;;;;;5033350;28;20049;-73
2022/09/05 01:45:50;;;;;;;5.47;4.22;;;19.00;95.50;;;;;;5033738;28;20045;-70
2022/09/05 01:48:52;;;;;;;7.10;4.40;;;18.90;95.30;;;;;;5033677;28;20130;-70
2022/09/05 01:51:38;;;;;;;8.57;4.10;;;18.90;95.30;;;;;;5050118;28;20103;-69
2022/09/05 01:54:23;;;;;;;6.15;4.35;;;18.90;95.30;;;;;;5033730;28;20049;-71
2022/09/05 01:56:55;;;;;;;;;;;18.90;95.40;;;;;;5017463;28;20095;-70
2022/09/05 01:59:40;;;;;;;7.07;4.25;;;18.90;95.40;;;;;;5033657;28;19920;-70
2022/09/05 02:02:36;;;;;;;7.18;4.07;;;18.80;95.40;;;;;;5033276;28;20099;-70
2022/09/05 02:05:29;;;;;;;6.13;4.15;;;18.80;95.70;;;;;;5032848;28;20053;-70
2022/09/05 02:08:38;;;;;;;7.32;4.13;;;18.70;95.50;;;;;;5032716;28;20505;-70
2022/09/05 02:11:05;;;;;;;9.40;4.18;;;18.70;95.70;;;;;;5052122;28;20041;-70
2022/09/05 02:13:34;;;;;;;9.25;4.60;;;18.70;95.70;;;;;;5037227;28;20106;-70
2022/09/05 02:16:12;;;;;;;5.20;3.90;;;18.70;95.90;;;;;;5036746;28;20041;-71
2022/09/05 02:18:56;;;;;;;4.93;4.25;;;18.60;95.80;;;;;;5020695;28;20493;-70
2022/09/05 02:22:05;;;;;;;8.35;4.43;;;18.60;96.30;;;;;;5036985;28;20474;-70
2022/09/05 02:24:31;;;;;;;6.78;4.25;;;18.50;96.20;;;;;;5036824;28;20144;-70
2022/09/05 02:27:18;;;;;;;9.20;4.18;;;18.50;96.30;;;;;;5036425;28;20045;-70
2022/09/05 02:30:04;;;;;;;7.45;4.30;;;18.40;96.40;;;;;;5036703;28;20057;-73
2022/09/05 02:32:42;;;;;;;7.75;4.30;;;18.40;96.60;;;;;;5036753;28;20126;-69
2022/09/05 02:35:19;;;;;;;5.30;3.65;;;18.40;96.40;;;;;;5036301;28;20084;-70
2022/09/05 02:37:50;;;;;;;6.70;4.18;;;18.40;96.40;;;;;;5036387;28;20132;-73
2022/09/05 02:40:27;;;;;;;7.75;4.00;;;18.30;96.50;;;;;;5054347;28;20041;-70
2022/09/05 02:42:53;;;;;;;4.65;3.67;;;18.30;96.60;;;;;;5035831;28;20505;-70
2022/09/05 02:45:50;;;;;;;6.22;4.32;;;18.30;96.70;;;;;;5020013;28;20131;-70
2022/09/05 02:48:39;;;;;;;8.60;4.63;;;18.20;96.90;;;;;;5019600;28;20119;-71
2022/09/05 02:51:26;;;;;;;6.97;4.30;;;18.20;96.90;;;;;;5036081;28;20041;-70
2022/09/05 02:54:04;;;;;;;6.68;4.20;;;18.10;96.90;;;;;;5036046;28;20044;-70
2022/09/05 02:56:51;;;;;;;5.28;3.92;;;18.10;97.10;;;;;;5053854;28;20048;-70
2022/09/05 02:59:52;;;;;;;6.65;4.60;;;18.10;97.10;;;;;;5019838;28;20403;-70
2022/09/05 03:02:25;;;;;;;6.03;4.20;;;18.00;96.90;;;;;;5036110;28;20529;-70
2022/09/05 03:05:09;;;;;;;5.55;4.25;;;18.00;96.90;;;;;;5053347;28;20059;-70
2022/09/05 03:07:56;;;;;;;7.88;4.80;;;18.00;97.10;;;;;;5036039;28;20049;-70
2022/09/05 03:10:44;;;;;;;7.35;4.18;;;18.00;97.10;;;;;;5019672;28;20060;-70
2022/09/05 03:13:28;;;;;;;5.15;4.25;;;18.00;97.10;;;;;;5052116;28;20087;-69
2022/09/05 03:16:24;;;;;;;7.60;4.50;;;17.90;97.30;;;;;;5018871;28;20108;-69
2022/09/05 03:19:39;;;;;;;7.00;4.20;;;17.90;97.40;;;;;;5035904;28;20457;-72
2022/09/05 03:22:42;;;;;;;7.93;4.77;;;17.80;97.40;;;;;;5052993;28;20045;-69
2022/09/05 03:25:26;;;;;;;6.72;4.45;;;17.80;97.80;;;;;;5018891;28;20056;-70
2022/09/05 03:28:14;;;;;;;5.78;4.38;;;17.80;97.70;;;;;;5052230;28;20443;-73
2022/09/05 03:31:07;;;;;;;5.63;4.57;;;17.70;97.80;;;;;;5019197;28;20044;-70
2022/09/05 03:34:19;;;;;;;9.07;4.55;;;17.70;97.80;;;;;;5019270;28;20506;-70
2022/09/05 03:37:16;;;;;;;7.00;4.55;;;17.60;97.60;;;;;;5052073;28;20092;-70
2022/09/05 03:40:03;;;;;;;8.38;4.50;;;17.70;97.70;;;;;;5035284;28;20045;-69
2022/09/05 03:42:52;;;;;;;8.38;5.00;;;17.60;98.10;;;;;;5035337;28;20576;-70
2022/09/05 03:45:48;;;;;;;7.85;4.72;;;17.50;97.80;;;;;;5035308;28;20104;-70
2022/09/05 03:48:46;;;;;;;5.97;4.55;;;17.50;97.80;;;;;;5035094;28;20072;-69
2022/09/05 03:51:38;;;;;;;6.63;4.80;;;17.50;97.90;;;;;;5035044;28;20451;-69
2022/09/05 03:54:29;;;;;;;6.68;4.45;;;17.50;97.80;;;;;;5035005;28;20541;-70
2022/09/05 03:57:12;;;;;;;10.98;4.70;;;17.50;98.00;;;;;;5035086;28;20044;-72
2022/09/05 04:00:01;;;;;;;6.00;4.40;;;17.40;97.90;;;;;;5035172;28;20105;-70
2022/09/05 04:02:32;;;;;;;8.77;4.57;;;17.40;98.10;;;;;;5018317;28;20144;-70
2022/09/05 04:05:04;;;;;;;6.72;4.80;;;17.40;98.60;;;;;;5033998;28;20084;-73
2022/09/05 04:07:39;;;;;;;6.63;4.53;;;17.30;98.30;;;;;;5018467;28;20187;-71
2022/09/05 04:10:27;;;;;;;7.65;4.40;;;17.30;98.60;;;;;;5018246;28;20056;-70
2022/09/05 04:13:06;;;;;;;9.45;4.85;;;17.20;98.50;;;;;;5052578;28;20045;-69
2022/09/05 04:15:58;;;;;;;6.47;4.57;;;17.30;98.80;;;;;;5034685;28;20108;-69
2022/09/05 04:18:33;;;;;;;7.88;4.80;;;17.20;98.70;;;;;;5034355;28;20055;-69
2022/09/05 04:21:14;;;;;;;6.00;4.30;;;17.20;98.90;;;;;;5018121;28;20092;-73
2022/09/05 04:24:07;;;;;;;7.80;5.10;;;17.10;99.00;;;;;;5018396;28;20059;-69
2022/09/05 04:27:00;;;;;;;6.20;5.10;;;17.10;99.00;;;;;;5018246;28;20048;-70
2022/09/05 04:29:46;;;;;;;6.28;4.82;;;17.10;99.00;;;;;;5034536;28;20402;-70
2022/09/05 04:32:29;;;;;;;5.82;4.25;;;17.10;99.20;;;;;;5017762;28;20053;-70
2022/09/05 04:35:01;;;;;;;7.40;5.10;;;17.00;99.00;;;;;;5017513;28;20402;-70
2022/09/05 04:38:04;;;;;;;5.65;4.60;;;17.00;99.10;;;;;;5034413;28;20048;-70
2022/09/05 04:40:55;;;;;;;7.38;5.00;;;17.00;99.50;;;;;;5034394;28;20056;-70
2022/09/05 04:43:26;;;;;;;6.25;4.80;;;17.00;99.50;;;;;;5033984;28;20052;-70
2022/09/05 04:45:58;;;;;;;6.90;4.40;;;16.90;99.40;;;;;;5017888;28;20045;-70
2022/09/05 04:48:33;;;;;;;6.25;4.90;;;16.90;99.30;;;;;;5033966;28;20049;-70
2022/09/05 04:51:04;;;;;;;7.00;5.47;;;16.90;99.70;;;;;;5051849;28;20412;-70
2022/09/05 04:53:53;;;;;;;7.40;4.75;;;16.80;99.80;;;;;;5051724;28;20045;-71
2022/09/05 04:56:29;;;;;;;11.10;5.35;;;16.80;99.50;;;;;;5016946;28;20055;-70
2022/09/05 04:59:22;;;;;;;7.32;5.00;;;16.80;99.70;;;;;;5017673;28;20107;-70
2022/09/05 05:02:02;;;;;;;10.90;5.50;;;16.80;99.70;;;;;;5006834;28;20056;-70
2022/09/05 05:04:28;;;;;;;6.90;5.05;;;16.80;99.70;;;;;;5002316;28;20495;-70
2022/09/05 05:07:15;;;;;;;6.47;5.20;;;16.80;99.80;;;;;;4981766;28;20097;-68
2022/09/05 05:09:51;;;;;;;7.45;4.90;;;16.70;99.70;;;;;;4997781;28;20076;-70
2022/09/05 05:12:53;;;;;;;6.20;4.97;;;16.70;99.90;;;;;;5013920;28;20096;-69
2022/09/05 05:15:22;;;;;;;6.65;4.88;;;16.70;99.90;;;;;;4997598;28;20056;-70
2022/09/05 05:17:59;;;;;;;6.50;5.38;;;16.70;99.90;;;;;;5031359;28;20088;-70
2022/09/05 05:20:48;;;;;;;7.47;4.90;;;16.70;99.90;;;;;;5013504;28;20050;-70
2022/09/05 05:23:27;;;;;;;8.23;5.70;;;16.70;99.80;;;;;;5012848;28;20089;-70
2022/09/05 05:25:57;;;;;;;10.90;4.60;;;16.70;99.90;;;;;;5031721;28;20136;-69
2022/09/05 05:28:46;;;;;;;7.72;5.43;;;16.80;99.90;;;;;;5013349;28;20049;-70
2022/09/05 05:31:15;;;;;;;8.25;5.40;;;16.80;99.90;;;;;;5013049;28;20443;-69
2022/09/05 05:33:46;;;;;;;6.60;4.90;;;16.80;99.90;;;;;;5013786;28;20462;-70
2022/09/05 05:36:25;;;;;;;6.35;4.70;;;16.90;99.90;;;;;;5030784;28;20136;-69
2022/09/05 05:39:03;;;;;;;8.32;5.07;;;17.00;99.90;;;;;;5013916;28;20048;-70
2022/09/05 05:41:36;;;;;;;7.43;4.65;;;17.10;99.90;;;;;;5030817;28;20041;-70
2022/09/05 05:44:25;;;;;;;7.10;5.00;;;17.60;99.90;;;;;;5014178;28;20125;-70
2022/09/05 05:47:21;;;;;;;7.70;4.68;;;18.20;99.70;;;;;;5000300;28;20060;-70
2022/09/05 05:50:11;;;;;;;9.98;5.32;;;18.70;98.90;;;;;;5035404;28;20045;-70
2022/09/05 05:53:01;;;;;;;6.63;4.55;;;19.30;97.70;;;;;;5017366;28;20127;-71
2022/09/05 05:55:38;;;;;;;6.30;4.78;;;19.70;97.30;;;;;;5017147;28;20395;-71
2022/09/05 05:58:12;;;;;;;11.25;4.80;;;20.20;97.00;;;;;;5001266;28;20057;-71
2022/09/05 06:01:02;;;;;;;6.07;4.20;;;20.70;95.90;;;;;;5000548;28;20053;-70
2022/09/05 06:03:36;;;;;;;6.25;4.70;;;20.90;95.00;;;;;;5023042;28;20441;-71
2022/09/05 06:06:50;;;;;;;6.45;4.57;;;20.90;94.40;;;;;;5020177;28;20127;-70
2022/09/05 06:09:53;;;;;;;7.97;4.95;;;21.30;93.60;;;;;;4976562;28;20491;-70
2022/09/05 06:12:50;;;;;;;10.05;4.47;;;21.70;93.50;;;;;;5036665;28;20080;-70
2022/09/05 06:15:41;;;;;;;10.27;4.45;;;21.60;93.10;;;;;;5036591;28;20060;-71
2022/09/05 06:18:06;;;;;;;6.75;4.47;;;21.20;93.40;;;;;;5020589;28;20107;-70
2022/09/05 06:21:09;;;;;;;6.53;4.80;;;20.90;93.60;;;;;;5036534;28;20049;-70
2022/09/05 06:23:57;;;;;;;6.63;4.93;;;20.50;93.80;;;;;;5036448;28;20049;-70
2022/09/05 06:26:50;;;;;;;7.95;4.72;;;20.00;94.60;;;;;;5053950;28;20044;-70
2022/09/05 06:30:07;;;;;;;6.40;5.00;;;19.70;94.90;;;;;;5036434;28;20052;-72
2022/09/05 06:32:51;;;;;;;6.20;5.00;;;19.50;95.40;;;;;;4986287;28;20380;-69
2022/09/05 06:35:35;;;;;;;8.23;5.22;;;19.40;95.70;;;;;;5036254;28;20620;-73
2022/09/05 06:38:12;;;;;;;6.32;4.90;;;19.30;95.70;;;;;;5020397;28;20049;-69
2022/09/05 06:41:03;;;;;;;6.28;4.45;;;19.20;96.00;;;;;;5036291;28;20052;-71
2022/09/05 06:43:43;;;;;;;8.77;5.47;;;19.10;96.30;;;;;;5019777;28;20410;-70
2022/09/05 06:46:29;;;;;;;10.15;5.40;;;19.10;96.20;;;;;;5036296;28;20056;-69
2022/09/05 06:49:00;;;;;;;11.70;5.95;;;19.10;96.40;;;;;;5019933;28;20056;-70
2022/09/05 06:51:39;;;;;;;11.88;5.30;;;19.20;96.60;;;;;;5019787;28;20041;-70
2022/09/05 06:54:08;;;;;;;8.13;5.40;;;19.20;96.40;;;;;;5020121;28;20124;-70
2022/09/05 06:56:39;;;;;;;7.40;5.30;;;19.30;96.50;;;;;;5035041;28;20511;-72
2022/09/05 06:59:35;;;;;;;9.35;5.40;;;19.30;96.50;;;;;;5035918;28;20091;-70
2022/09/05 07:02:11;;;;;;;11.65;4.93;;;19.40;96.50;;;;;;5035625;28;20048;-70
2022/09/05 07:05:07;;;;;;;9.68;6.07;;;19.50;96.40;;;;;;5035088;28;20514;-70
2022/09/05 07:07:47;;;;;;;7.78;4.65;;;19.60;96.40;;;;;;5023023;28;20053;-69
2022/09/05 07:10:42;;;;;;;11.38;5.88;;;19.70;96.40;;;;;;5053524;28;20107;-70
2022/09/05 07:13:15;;;;;;;;;;;19.70;96.30;;;;;;5036295;28;20053;-71
2022/09/05 07:16:02;;;;;;;7.90;5.20;;;19.70;96.40;;;;;;5035655;28;19978;-70
2022/09/05 07:18:42;;;;;;;7.10;5.20;;;19.70;96.40;;;;;;5035690;28;20056;-71
2022/09/05 07:21:31;;;;;;;7.90;5.38;;;19.80;96.40;;;;;;5035964;28;20544;-71
2022/09/05 07:24:06;;;;;;;9.07;5.38;;;19.90;96.30;;;;;;5035860;28;20052;-72
2022/09/05 07:26:34;;;;;;;7.97;4.88;;;19.90;96.30;;;;;;5035552;28;20052;-70
2022/09/05 07:29:06;;;;;;;10.73;5.68;;;20.10;96.30;;;;;;5035452;28;20052;-70
2022/09/05 07:31:37;;;;;;;9.45;5.03;;;20.20;96.30;;;;;;5035200;28;20056;-71
2022/09/05 07:34:33;;;;;;;10.68;5.40;;;20.40;96.10;;;;;;5035272;28;20044;-72
2022/09/05 07:37:34;;;;;;;6.47;5.05;;;20.70;95.80;;;;;;5022670;28;20075;-71
2022/09/05 07:40:08;;;;;;;6.88;4.82;;;20.90;95.90;;;;;;5019721;28;20057;-67
2022/09/05 07:42:40;;;;;;;10.55;4.80;;;21.50;95.90;;;;;;5034658;28;20052;-69
2022/09/05 07:45:12;;;;;;;7.38;5.22;;;22.60;94.90;;;;;;5052731;28;20073;-70
2022/09/05 07:47:51;;;;;;;6.57;4.88;;;23.50;93.70;;;;;;5052698;28;20052;-72
2022/09/05 07:50:17;;;;;;;8.30;5.10;;;24.40;92.10;;;;;;5018939;28;20045;-71
2022/09/05 07:52:45;;;;;;;13.27;4.80;;;25.20;91.90;;;;;;5018152;28;20056;-72
2022/09/05 07:55:24;;;;;;;7.75;4.60;;;25.90;91.80;;;;;;5034640;28;20037;-72
2022/09/05 07:57:52;;;;;;;6.25;4.43;;;26.60;91.00;;;;;;5034834;28;20455;-70
2022/09/05 08:00:24;;;;;;;9.07;4.43;;;27.00;89.70;;;;;;5035208;28;20045;-71
2022/09/05 08:02:51;;;;;;;8.68;4.00;;;27.30;87.50;;;;;;5051246;28;20459;-73
2022/09/05 08:05:20;;;;;;;6.80;4.20;;;27.80;85.90;;;;;;5018006;28;20049;-73
2022/09/05 08:07:53;;;;;;;9.68;4.60;;;28.20;86.00;;;;;;5033776;28;20463;-72
2022/09/05 08:10:32;;;;;;;5.88;4.40;;;28.60;87.40;;;;;;5017936;28;20053;-71
2022/09/05 08:13:06;;;;;;;10.15;4.30;;;29.00;87.00;;;;;;5034082;28;20056;-71
2022/09/05 08:15:34;;;;;;;7.57;4.22;;;29.20;84.80;;;;;;5051395;28;20048;-72
2022/09/05 08:18:15;;;;;;;7.57;4.22;;;29.50;85.80;;;;;;5018048;28;20131;-71
2022/09/05 08:20:50;;;;;;;9.07;4.00;;;29.70;82.90;;;;;;5033849;28;20081;-73
2022/09/05 08:23:28;;;;;;;7.20;4.35;;;30.00;84.10;;;;;;5017756;28;20045;-72
2022/09/05 08:26:11;;;;;;;7.00;3.70;;;30.20;82.60;;;;;;5034678;28;20048;-69
2022/09/05 08:28:54;;;;;;;5.43;3.87;;;30.40;82.50;;;;;;5033991;28;20088;-71
2022/09/05 08:31:37;;;;;;;7.67;4.47;;;30.40;83.20;;;;;;5034702;28;20044;-71
2022/09/05 08:34:10;;;;;;;8.00;3.78;;;30.30;82.10;;;;;;5034443;28;20800;-70
2022/09/05 08:36:45;;;;;;;8.45;3.90;;;30.20;83.50;;;;;;5034200;28;20076;-68
2022/09/05 08:39:15;;;;;;;7.68;4.20;;;30.30;83.20;;;;;;5052004;28;20056;-70
2022/09/05 08:42:00;;;;;;;8.60;3.78;;;30.50;83.20;;;;;;5034054;28;20048;-70
2022/09/05 08:44:31;;;;;;;8.98;3.60;;;30.60;82.20;;;;;;5051936;28;20226;-70
2022/09/05 08:47:09;;;;;;;5.75;3.70;;;30.60;82.30;;;;;;5034245;28;20053;-72
2022/09/05 08:49:48;;;;;;;7.35;3.38;;;30.50;82.30;;;;;;5050964;28;20052;-74
2022/09/05 08:52:34;;;;;;;8.27;3.80;;;30.50;82.60;;;;;;5034065;28;20052;-73
2022/09/05 08:55:32;;;;;;;7.20;3.55;;;30.50;81.90;;;;;;5034826;28;20457;-69
2022/09/05 08:58:06;;;;;;;9.13;3.65;;;30.70;82.20;;;;;;5017395;28;20140;-68
2022/09/05 09:00:37;;;;;;;;;;;30.90;82.10;;;;;;5052039;28;20052;-69
2022/09/05 09:03:13;;;;;;;6.55;3.70;;;30.90;82.00;;;;;;5033381;28;19928;-73
2022/09/05 09:05:54;;;;;;;6.47;3.45;;;31.30;82.10;;;;;;5033452;28;20389;-71
2022/09/05 09:08:32;;;;;;;5.45;3.83;;;31.60;82.20;;;;;;5033247;28;20514;-73
2022/09/05 09:11:25;;;;;;;7.22;3.83;;;31.60;81.20;;;;;;5033866;28;20063;-71
2022/09/05 09:13:55;;;;;;;12.35;4.15;;;31.50;82.20;;;;;;5033961;28;20055;-70
2022/09/05 09:17:02;;;;;;;6.63;3.58;;;31.10;81.90;;;;;;5033988;28;20429;-68
2022/09/05 09:19:45;;;;;;;4.97;3.85;;;31.20;82.00;;;;;;5041573;28;20521;-71
2022/09/05 09:22:37;;;;;;;5.07;3.50;;;31.60;80.70;;;;;;5055853;28;20051;-69
2022/09/05 09:25:15;;;;;;;8.43;3.65;;;31.60;81.30;;;;;;5021701;28;20099;-71
2022/09/05 09:28:01;;;;;;;8.02;3.60;;;31.10;81.10;;;;;;5055511;28;20056;-72
2022/09/05 09:30:29;;;;;;;8.68;3.47;;;30.50;81.50;;;;;;5037533;28;20057;-73
2022/09/05 09:33:02;;;;;;;6.97;3.55;;;30.00;82.40;;;;;;5037556;28;20048;-71
2022/09/05 09:35:37;;;;;;;9.65;3.35;;;29.50;82.70;;;;;;5037908;28;20088;-71
2022/09/05 09:38:20;;;;;;;5.60;3.63;;;29.40;83.40;;;;;;5037820;28;20378;-71
2022/09/05 09:41:01;;;;;;;10.40;3.70;;;29.10;83.60;;;;;;5055245;28;20049;-72
2022/09/05 09:43:37;;;;;;;7.22;3.20;;;29.00;84.20;;;;;;5037860;28;20437;-72
2022/09/05 09:46:13;;;;;;;7.38;3.53;;;28.90;84.40;;;;;;5037305;28;20087;-72
2022/09/05 09:49:10;;;;;;;8.82;3.58;;;28.80;84.10;;;;;;5055318;28;20060;-74
2022/09/05 09:52:01;;;;;;;7.75;3.40;;;28.60;84.70;;;;;;5037312;28;20548;-71
2022/09/05 09:55:01;;;;;;;6.28;3.38;;;28.50;84.60;;;;;;5021357;28;20037;-71
2022/09/05 09:58:04;;;;;;;7.03;3.53;;;28.20;85.10;;;;;;5055219;28;20091;-74
2022/09/05 10:01:12;;;;;;;6.93;3.08;;;28.10;85.50;;;;;;5020994;28;20144;-73
2022/09/05 10:03:41;;;;;;;6.75;3.15;;;28.00;85.80;;;;;;5055015;28;20135;-73
2022/09/05 10:06:12;;;;;;;7.45;3.15;;;28.10;85.80;;;;;;5037326;28;20056;-73
2022/09/05 10:09:02;;;;;;;15.98;3.28;;;28.20;85.80;;;;;;5020976;28;20486;-75
2022/09/05 10:11:54;;;;;;;7.13;3.03;;;28.40;85.20;;;;;;5037465;28;20115;-75
2022/09/05 10:14:48;;;;;;;4.68;2.80;;;28.40;85.50;;;;;;5010046;28;20061;-73
2022/09/05 10:17:35;;;;;;;7.32;2.92;;;28.30;85.80;;;;;;5037252;28;20052;-74
2022/09/05 10:20:04;;;;;;;6.60;2.67;;;28.40;85.90;;;;;;5020440;28;20060;-73
2022/09/05 10:22:45;;;;;;;5.43;2.70;;;28.30;85.50;;;;;;5020611;28;20095;-76
2022/09/05 10:25:17;;;;;;;7.80;2.70;;;28.30;85.60;;;;;;5037082;28;20048;-77
2022/09/05 10:28:06;;;;;;;5.88;2.50;;;28.40;85.90;;;;;;5020585;28;20049;-74
2022/09/05 10:30:46;;;;;;;5.15;2.67;;;28.50;86.00;;;;;;5037163;28;20107;-74
2022/09/05 10:33:26;;;;;;;3.58;2.70;;;28.70;85.90;;;;;;5019368;28;20172;-70
2022/09/05 10:36:23;;;;;;;9.35;3.20;;;28.70;85.80;;;;;;5036670;28;20052;-71
2022/09/05 10:39:20;;;;;;;5.32;2.92;;;28.70;85.80;;;;;;5010793;28;20053;-72
2022/09/05 10:42:03;;;;;;;6.38;2.50;;;28.70;85.90;;;;;;5036990;28;20053;-72
2022/09/05 10:44:40;;;;;;;10.97;3.17;;;28.90;86.00;;;;;;5019864;28;20676;-73
2022/09/05 10:47:15;;;;;;;5.25;2.38;;;29.00;84.90;;;;;;5019818;28;20398;-73
2022/09/05 10:49:48;;;;;;;5.40;2.33;;;29.00;84.60;;;;;;5036615;28;20052;-73
2022/09/05 10:52:21;;;;;;;7.35;2.28;;;29.00;84.90;;;;;;5036440;28;20063;-73
2022/09/05 10:55:29;;;;;;;3.15;2.28;;;29.00;85.30;;;;;;5053827;28;20049;-73
2022/09/05 10:57:59;;;;;;;3.75;2.25;;;28.90;84.10;;;;;;5036150;28;20465;-72
2022/09/05 11:00:46;;;;;;;3.72;2.05;;;29.00;83.70;;;;;;5054056;28;20048;-73
2022/09/05 11:03:19;;;;;;;4.03;2.15;;;28.90;83.30;;;;;;5035568;28;20053;-73
2022/09/05 11:05:57;;;;;;;3.97;2.00;;;28.80;83.70;;;;;;5053860;28;20482;-75
2022/09/05 11:08:54;;;;;;;4.55;2.30;;;28.90;83.70;;;;;;5020361;28;20055;-73
2022/09/05 11:11:25;;;;;;;3.30;2.25;;;29.00;83.70;;;;;;5053962;28;20044;-73
2022/09/05 11:13:54;;;;;;;4.95;2.20;;;28.90;83.60;;;;;;5053845;28;20041;-73
2022/09/05 11:16:44;;;;;;;3.25;2.20;;;28.90;83.40;;;;;;5036021;28;20075;-72
2022/09/05 11:19:50;;;;;;;5.50;2.38;;;28.80;83.50;;;;;;5053402;28;20437;-74
2022/09/05 11:22:16;;;;;;;5.55;1.98;;;28.80;83.40;;;;;;5035855;28;20137;-74
2022/09/05 11:24:56;;;;;;;4.38;2.20;;;28.60;83.30;;;;;;5053969;28;20124;-75
2022/09/05 11:27:35;;;;;;;6.03;2.20;;;28.60;83.90;;;;;;5053880;28;20057;-74
2022/09/05 11:30:05;;;;;;;10.38;2.00;;;28.60;84.10;;;;;;5035773;28;20060;-73
2022/09/05 11:32:43;;;;;;;10.40;2.20;;;28.60;83.50;;;;;;5036080;28;20379;-73
2022/09/05 11:35:09;;;;;;;6.93;2.45;;;28.60;83.70;;;;;;5053346;28;20084;-73
2022/09/05 11:38:07;;;;;;;4.57;2.30;;;28.60;83.80;;;;;;5019347;28;20053;-72
2022/09/05 11:40:41;;;;;;;6.65;2.42;;;28.60;84.10;;;;;;5022025;28;20059;-72
2022/09/05 11:43:47;;;;;;;7.78;2.22;;;28.80;84.50;;;;;;5052843;28;20051;-74
2022/09/05 11:46:32;;;;;;;3.25;2.10;;;28.90;83.50;;;;;;5019029;28;20049;-73
2022/09/05 11:49:09;;;;;;;4.53;2.20;;;28.90;83.70;;;;;;5018664;28;20088;-72
2022/09/05 13:39:26;;;;;;;5.70;2.72;;;29.50;82.10;;;;;;5061126;28;20639;-71
2022/09/05 13:41:58;;;;;;;5.88;2.75;;;29.60;83.10;;;;;;5066282;28;20486;-70
2022/09/05 13:44:25;;;;;;;5.68;2.78;;;29.60;82.80;;;;;;5065414;28;20053;-71
2022/09/05 15:59:09;;;;;;;4.32;2.15;;;28.70;82.10;;;;;;5107839;27;1963280;-70
2022/09/05 16:01:36;;;;;;;4.15;2.33;;;28.70;83.20;;;;;;5158161;27;20239;-69
2022/09/05 16:04:08;;;;;;;5.25;2.50;;;28.70;83.30;;;;;;5140734;27;20043;-67
2022/09/05 16:06:33;;;;;;;4.40;2.60;;;28.70;83.80;;;;;;5140333;27;20055;-72
2022/09/05 16:09:04;;;;;;;3.13;2.22;;;28.70;84.00;;;;;;5151797;27;20039;-66
2022/09/05 16:11:39;;;;;;;3.20;1.90;;;28.60;83.50;;;;;;5118135;27;20047;-66
2022/09/05 16:17:33;;;;;;;5.45;2.67;;;28.60;84.00;;;;;;5137543;27;20108;-66
2022/09/05 16:20:15;;;;;;;6.50;2.60;;;28.50;84.80;;;;;;5119734;28;20048;-67
2022/09/05 16:22:50;;;;;;;4.85;2.67;;;28.40;85.50;;;;;;5122275;28;20428;-68
2022/09/05 16:25:22;;;;;;;5.75;2.67;;;28.30;85.70;;;;;;5100528;28;20070;-67
2022/09/05 16:28:02;;;;;;;5.45;2.80;;;28.20;86.20;;;;;;5120660;28;20043;-67
2022/09/05 16:30:34;;;;;;;6.47;2.72;;;28.20;86.40;;;;;;5099207;28;20104;-68
2022/09/05 16:33:12;;;;;;;4.63;2.88;;;28.10;86.60;;;;;;5123693;28;20511;-68
2022/09/05 16:35:45;;;;;;;6.43;2.80;;;28.10;86.70;;;;;;5121389;28;20114;-71
2022/09/05 16:38:13;;;;;;;5.05;2.60;;;28.00;86.80;;;;;;5120437;28;20047;-67
2022/09/05 16:40:42;;;;;;;6.70;2.75;;;27.90;87.00;;;;;;5120313;28;20075;-68
2022/09/05 16:43:20;;;;;;;8.32;3.13;;;27.90;87.20;;;;;;5127937;28;20460;-68
2022/09/05 16:45:51;;;;;;;5.25;2.33;;;27.80;87.40;;;;;;5127867;27;20055;-68
2022/09/05 16:48:31;;;;;;;6.20;2.88;;;27.80;87.70;;;;;;5104417;28;20463;-67
2022/09/05 16:51:22;;;;;;;6.13;2.90;;;27.70;88.00;;;;;;5121243;28;20952;-66
2022/09/05 16:54:20;;;;;;;5.65;3.00;;;27.60;87.90;;;;;;5107862;28;20036;-68
2022/09/05 16:57:00;;;;;;;7.70;2.85;;;27.50;88.60;;;;;;5101487;28;20036;-69
2022/09/05 16:59:30;;;;;;;5.75;2.97;;;27.50;88.40;;;;;;5099558;28;20083;-70
2022/09/05 17:02:25;;;;;;;5.72;2.90;;;27.40;88.50;;;;;;5116703;27;20497;-68
2022/09/05 17:04:50;;;;;;;;;;;27.30;88.90;;;;;;5124218;27;20480;-67
2022/09/05 17:07:43;;;;;;;7.05;3.42;;;27.30;88.80;;;;;;5112696;28;19931;-67
2022/09/05 17:10:24;;;;;;;4.85;3.38;;;27.20;88.70;;;;;;5123033;28;20445;-67
2022/09/05 17:12:51;;;;;;;5.00;3.35;;;27.10;88.90;;;;;;5113789;28;20059;-68
2022/09/05 17:15:37;;;;;;;5.25;3.08;;;27.10;89.00;;;;;;5106092;28;20042;-68
2022/09/05 17:18:13;;;;;;;8.02;3.22;;;27.00;89.10;;;;;;5123721;28;20128;-69
2022/09/05 17:20:42;;;;;;;5.20;3.00;;;26.90;89.10;;;;;;5105906;28;20077;-68
2022/09/05 17:23:16;;;;;;;8.13;3.20;;;26.90;89.20;;;;;;5104008;28;20081;-65
2022/09/05 17:25:53;;;;;;;7.78;3.22;;;26.80;89.70;;;;;;5122641;28;20066;-65
2022/09/05 17:28:46;;;;;;;6.38;3.50;;;26.80;90.10;;;;;;5091753;28;20058;-68
2022/09/05 17:31:36;;;;;;;4.63;2.90;;;26.70;89.90;;;;;;5073000;28;20047;-68
2022/09/05 17:34:19;;;;;;;9.35;3.00;;;26.70;90.10;;;;;;5058516;28;20421;-68
2022/09/05 17:37:04;;;;;;;5.18;3.15;;;26.60;90.00;;;;;;5098681;28;20047;-71
2022/09/05 17:39:41;;;;;;;7.03;3.22;;;26.50;90.20;;;;;;5098567;28;20052;-69
2022/09/05 17:42:35;;;;;;;9.50;2.90;;;26.40;90.00;;;;;;5101930;28;20108;-67
2022/09/05 17:45:19;;;;;;;4.00;3.00;;;26.40;90.30;;;;;;5095489;28;20105;-68
2022/09/05 17:47:54;;;;;;;7.40;3.42;;;26.40;90.10;;;;;;5103091;28;20047;-71
2022/09/05 17:50:26;;;;;;;8.38;3.10;;;26.30;90.20;;;;;;5105808;28;20051;-68
2022/09/05 17:52:56;;;;;;;7.28;3.33;;;26.30;90.20;;;;;;5083076;28;20134;-69
2022/09/05 17:55:36;;;;;;;4.82;3.05;;;26.20;90.20;;;;;;5098956;28;20083;-70
2022/09/05 18:29:31;;;;;;;8.73;3.20;;;25.60;90.20;;;;;;5055413;27;20168;-66
2022/09/05 18:31:58;;;;;;;7.22;3.17;;;25.50;90.70;;;;;;5034148;27;20048;-69
2022/09/05 18:34:45;;;;;;;6.75;3.20;;;25.40;90.80;;;;;;5043506;27;20154;-67
2022/09/05 18:37:51;;;;;;;8.80;3.15;;;25.30;91.40;;;;;;5040201;28;20034;-69
2022/09/05 18:40:47;;;;;;;7.78;3.22;;;25.30;91.20;;;;;;5096660;28;20057;-66